Main page
METAR-TAF:

METAR-TAF

Airports :

Lelystad Airport

Lelystad, Netherlands

latitude: 52-27-37N, longitude: 005-31-38E, elevation: -4 m

Current weather observation

The report was made 18 minutes ago, at 16:25 UTC
Wind 14 kt from the North/Northeast, varying between North and East/Northeast
Temperature 18°C
Humidity 42%
Pressure 1032 hPa
Visibility 10 km or more

METAR: EHLE 281625Z AUTO 02014KT 350V060 9999 NSC 18/05 Q1032 NOSIG

Time: 18:43 (16:43 UTC)

Forecast

The report was made 5 hours and 33 minutes ago, at 11:10 UTC
Forecast valid from 28 at 12 UTC to 29 at 18 UTC
Wind 13 kt from the North
Visibility 10 km or more
Few clouds at a height of 4000 ft
Becoming
from 28 at 19 UTC to 28 at 22 UTC
Wind 7 kt from the Northeast
Becoming
from 29 at 12 UTC to 29 at 15 UTC
Wind 13 kt from the North/Northeast

TAF: EHLE 281110Z 2812/2918 01013KT 9999 FEW040 BECMG 2819/2822 05007KT BECMG 2912/2915 02013KT

Weather observations and forecasts of more than 4000 airports (METAR and TAF reports).

The available stations are represented by yellow and red dots on the map.

Hover mouse over dot to see the name of the station.

Then click to see weather observations and forecasts.

To change the map : click on the green buttons with a black cross to zoom in, on the green button with a dash to zoom out, or on the green arrows for adjacent maps.


METAR-TAF: